EDW2M CYVR-LSZH
Flight info
| Callsign | EDW2M |
|---|---|
| Flight time | N/A |
| Altitude | 36000 |
| Route | SEATN J534 YWL/N0491F370 DCT YQU DCT 59N115W 63N110W 68N100W 7030N09000W/N0492F390 72N080W/M085F390 DCT MEDPA DCT 73N060W 71N040W 69N030W 67N020W 64N010W/M085F410 DCT PEMOS/N0482F410 DCT TIMUP L7 ASKAM UP59 RENEQ DCT ASBON DCT TUSUK DCT LAMGO/N0490F270 T721 RILAX |
| Aircraft | A359/H-SDE2E3GHIJ3J4J5LM1ORWXY/LB1D1 |
Departure
| Time | N/A |
|---|---|
| Airport | Vancouver International Airport (CYVR) |
Arrival
| Time | 2026-04-26 07:19 |
|---|---|
| Airport | Zürich Airport (LSZH) |
| Time | Latitude | Longitude | Altitude | Speed | Heading |
|---|---|---|---|---|---|
| 2026-04-26 07:04 | 48.49614 | 8.67513 | 20332 ft | 415 kts | 191° |
| 2026-04-26 07:04 | 48.46818 | 8.66774 | 19748 ft | 413 kts | 191° |
| 2026-04-26 07:04 | 48.43991 | 8.66027 | 19154 ft | 412 kts | 191° |
| 2026-04-26 07:05 | 48.41171 | 8.65281 | 18547 ft | 410 kts | 191° |
| 2026-04-26 07:05 | 48.38364 | 8.64541 | 17883 ft | 409 kts | 191° |
| 2026-04-26 07:05 | 48.35574 | 8.63778 | 17244 ft | 407 kts | 192° |
| 2026-04-26 07:05 | 48.32806 | 8.62956 | 16617 ft | 405 kts | 193° |
| 2026-04-26 07:06 | 48.30059 | 8.62109 | 15987 ft | 403 kts | 193° |
| 2026-04-26 07:06 | 48.27321 | 8.61259 | 15376 ft | 401 kts | 193° |
| 2026-04-26 07:06 | 48.24590 | 8.60417 | 14747 ft | 400 kts | 192° |
| 2026-04-26 07:06 | 48.21868 | 8.59583 | 14113 ft | 399 kts | 192° |
| 2026-04-26 07:07 | 48.19152 | 8.58757 | 13413 ft | 397 kts | 192° |
| 2026-04-26 07:07 | 48.16455 | 8.57944 | 12767 ft | 394 kts | 192° |
| 2026-04-26 07:07 | 48.13780 | 8.57149 | 12140 ft | 390 kts | 192° |
| 2026-04-26 07:07 | 48.11125 | 8.56360 | 11512 ft | 387 kts | 192° |
| 2026-04-26 07:08 | 48.08501 | 8.55579 | 11022 ft | 378 kts | 192° |
| 2026-04-26 07:08 | 48.06027 | 8.54845 | 10919 ft | 347 kts | 192° |
| 2026-04-26 07:08 | 48.03737 | 8.54166 | 10827 ft | 327 kts | 192° |
| 2026-04-26 07:08 | 48.01557 | 8.53519 | 10717 ft | 312 kts | 192° |
| 2026-04-26 07:09 | 47.99468 | 8.52898 | 10582 ft | 300 kts | 192° |
| 2026-04-26 07:09 | 47.97455 | 8.52300 | 10445 ft | 291 kts | 192° |
| 2026-04-26 07:09 | 47.95496 | 8.51717 | 10308 ft | 282 kts | 192° |
| 2026-04-26 07:09 | 47.93591 | 8.51152 | 10157 ft | 279 kts | 192° |
| 2026-04-26 07:10 | 47.87767 | 8.49381 | 9300 ft | 296 kts | 192° |
| 2026-04-26 07:11 | 47.83728 | 8.48157 | 8484 ft | 291 kts | 192° |
| 2026-04-26 07:11 | 47.81775 | 8.47566 | 8158 ft | 289 kts | 192° |
| 2026-04-26 07:11 | 47.79831 | 8.46979 | 7878 ft | 277 kts | 192° |
| 2026-04-26 07:11 | 47.77993 | 8.46422 | 7564 ft | 263 kts | 191° |
| 2026-04-26 07:12 | 47.76229 | 8.45890 | 7295 ft | 253 kts | 191° |
| 2026-04-26 07:12 | 47.74517 | 8.45371 | 7060 ft | 250 kts | 191° |
| 2026-04-26 07:12 | 47.72815 | 8.44858 | 6746 ft | 249 kts | 191° |
| 2026-04-26 07:12 | 47.71128 | 8.44349 | 6282 ft | 245 kts | 190° |
| 2026-04-26 07:13 | 47.69485 | 8.43686 | 5951 ft | 245 kts | 201° |
| 2026-04-26 07:13 | 47.68075 | 8.42304 | 5694 ft | 243 kts | 223° |
| 2026-04-26 07:13 | 47.66898 | 8.40496 | 5502 ft | 244 kts | 226° |
| 2026-04-26 07:13 | 47.65762 | 8.38658 | 5282 ft | 239 kts | 226° |
| 2026-04-26 07:14 | 47.64652 | 8.36876 | 5073 ft | 233 kts | 225° |
| 2026-04-26 07:14 | 47.63379 | 8.35505 | 4886 ft | 220 kts | 197° |
| 2026-04-26 07:14 | 47.61924 | 8.35463 | 4834 ft | 210 kts | 159° |
| 2026-04-26 07:14 | 47.60675 | 8.36525 | 4671 ft | 208 kts | 137° |
| 2026-04-26 07:15 | 47.59634 | 8.38005 | 4501 ft | 208 kts | 132° |
| 2026-04-26 07:15 | 47.58598 | 8.39459 | 4263 ft | 201 kts | 135° |
| 2026-04-26 07:15 | 47.57591 | 8.40805 | 3982 ft | 191 kts | 135° |
| 2026-04-26 07:15 | 47.56638 | 8.42107 | 3707 ft | 180 kts | 134° |
| 2026-04-26 07:16 | 47.55740 | 8.43339 | 3464 ft | 172 kts | 134° |
| 2026-04-26 07:16 | 47.55167 | 8.44119 | 3321 ft | 165 kts | 133° |
| 2026-04-26 07:16 | 47.54110 | 8.45562 | 3040 ft | 145 kts | 133° |
| 2026-04-26 07:16 | 47.53390 | 8.46549 | 2835 ft | 139 kts | 133° |
| 2026-04-26 07:17 | 47.52916 | 8.47183 | 2721 ft | 137 kts | 134° |
| 2026-04-26 07:17 | 47.52208 | 8.48140 | 2536 ft | 139 kts | 134° |
| 2026-04-26 07:17 | 47.51247 | 8.49426 | 2230 ft | 139 kts | 135° |
| 2026-04-26 07:17 | 47.50766 | 8.50063 | 2110 ft | 140 kts | 136° |
| 2026-04-26 07:18 | 47.50054 | 8.51040 | 1909 ft | 140 kts | 136° |
| 2026-04-26 07:18 | 47.49349 | 8.52043 | 1733 ft | 142 kts | 135° |
| 2026-04-26 07:18 | 47.48623 | 8.53043 | 1563 ft | 142 kts | 137° |
| 2026-04-26 07:18 | 47.47921 | 8.53989 | 1419 ft | 141 kts | 136° |
| 2026-04-26 07:19 | 47.47308 | 8.54839 | 1406 ft | 87 kts | 137° |
| 2026-04-26 07:19 | 47.47013 | 8.55241 | 1403 ft | 48 kts | 137° |
| 2026-04-26 07:19 | 47.46788 | 8.55544 | 1410 ft | 39 kts | 142° |
| 2026-04-26 07:19 | 47.46604 | 8.55676 | 1405 ft | 20 kts | 167° |
| 2026-04-26 07:20 | 47.46580 | 8.55684 | 1409 ft | 0 kts | 167° |
| 2026-04-26 07:20 | 47.46572 | 8.55686 | 1408 ft | 3 kts | 167° |
| 2026-04-26 07:20 | 47.46533 | 8.55700 | 1406 ft | 8 kts | 167° |
| 2026-04-26 07:20 | 47.46480 | 8.55718 | 1407 ft | 8 kts | 167° |
| 2026-04-26 07:21 | 47.46410 | 8.55745 | 1412 ft | 12 kts | 161° |
| 2026-04-26 07:21 | 47.46340 | 8.55816 | 1414 ft | 14 kts | 138° |
| 2026-04-26 07:21 | 47.46274 | 8.55907 | 1416 ft | 13 kts | 137° |
| 2026-04-26 07:21 | 47.46208 | 8.55990 | 1419 ft | 12 kts | 149° |
| 2026-04-26 07:22 | 47.46117 | 8.55994 | 1415 ft | 15 kts | 187° |
| 2026-04-26 07:22 | 47.46018 | 8.55978 | 1414 ft | 10 kts | 186° |
| 2026-04-26 07:22 | 47.45950 | 8.55948 | 1418 ft | 9 kts | 219° |
| 2026-04-26 07:22 | 47.45941 | 8.55854 | 1413 ft | 11 kts | 275° |
| 2026-04-26 07:23 | 47.45946 | 8.55775 | 1410 ft | 4 kts | 275° |
| 2026-04-26 07:23 | 47.45968 | 8.55727 | 1412 ft | 8 kts | 330° |
| 2026-04-26 07:23 | 47.46017 | 8.55731 | 1416 ft | 7 kts | 7° |
| 2026-04-26 07:23 | 47.46026 | 8.55733 | 1416 ft | 1 kts | 7° |
| 2026-04-26 07:24 | 47.46032 | 8.55734 | 1417 ft | 0 kts | 7° |